DLH8RX EDDF-LKPR
Flight info
| Callsign | DLH8RX |
|---|---|
| Flight time | 0h 43m |
| Altitude | 29000 |
| Route | SULUS4D/07C SULUS Z650 TONSU Z35 ODOMO DCT LOMKI |
| Aircraft | A320/M-SDE3FGHIRWY/LB1 |
Departure
| Time | 2026-04-14 13:05 |
|---|---|
| Airport | Frankfurt Main Airport (EDDF) |
Arrival
| Time | 2026-04-14 13:49 |
|---|---|
| Airport | Václav Havel Airport Prague (LKPR) |
| Time | Latitude | Longitude | Altitude | Speed | Heading |
|---|---|---|---|---|---|
| 2026-04-14 12:33 | 50.04852 | 8.56946 | 358 ft | 0 kts | 295° |
| 2026-04-14 12:51 | 50.04849 | 8.56956 | 362 ft | 4 kts | 294° |
| 2026-04-14 12:52 | 50.04838 | 8.56995 | 363 ft | 4 kts | 295° |
| 2026-04-14 12:52 | 50.04830 | 8.57031 | 363 ft | 4 kts | 265° |
| 2026-04-14 12:52 | 50.04839 | 8.57065 | 360 ft | 4 kts | 213° |
| 2026-04-14 12:52 | 50.04840 | 8.57068 | 360 ft | 4 kts | 205° |
| 2026-04-14 12:53 | 50.04816 | 8.57050 | 363 ft | 4 kts | 205° |
| 2026-04-14 12:53 | 50.04793 | 8.57034 | 358 ft | 2 kts | 205° |
| 2026-04-14 12:53 | 50.04792 | 8.57034 | 356 ft | 0 kts | 205° |
| 2026-04-14 12:58 | 50.04789 | 8.57031 | 356 ft | 4 kts | 205° |
| 2026-04-14 12:58 | 50.04771 | 8.57018 | 362 ft | 0 kts | 205° |
| 2026-04-14 12:58 | 50.04753 | 8.57005 | 358 ft | 6 kts | 205° |
| 2026-04-14 12:58 | 50.04715 | 8.56978 | 359 ft | 6 kts | 205° |
| 2026-04-14 12:59 | 50.04667 | 8.56943 | 359 ft | 7 kts | 205° |
| 2026-04-14 12:59 | 50.04622 | 8.56918 | 358 ft | 7 kts | 195° |
| 2026-04-14 12:59 | 50.04558 | 8.56893 | 360 ft | 11 kts | 193° |
| 2026-04-14 12:59 | 50.04487 | 8.56867 | 359 ft | 10 kts | 193° |
| 2026-04-14 13:00 | 50.04412 | 8.56847 | 364 ft | 11 kts | 188° |
| 2026-04-14 13:00 | 50.04337 | 8.56825 | 360 ft | 12 kts | 191° |
| 2026-04-14 13:00 | 50.04255 | 8.56781 | 362 ft | 12 kts | 225° |
| 2026-04-14 13:00 | 50.04216 | 8.56648 | 360 ft | 16 kts | 249° |
| 2026-04-14 13:01 | 50.04173 | 8.56473 | 357 ft | 19 kts | 250° |
| 2026-04-14 13:01 | 50.04124 | 8.56263 | 360 ft | 22 kts | 250° |
| 2026-04-14 13:01 | 50.04067 | 8.56026 | 358 ft | 25 kts | 249° |
| 2026-04-14 13:01 | 50.04004 | 8.55765 | 357 ft | 27 kts | 249° |
| 2026-04-14 13:02 | 50.03937 | 8.55483 | 357 ft | 28 kts | 249° |
| 2026-04-14 13:02 | 50.03880 | 8.55244 | 358 ft | 17 kts | 250° |
| 2026-04-14 13:02 | 50.03834 | 8.55054 | 357 ft | 20 kts | 250° |
| 2026-04-14 13:02 | 50.03783 | 8.54836 | 351 ft | 23 kts | 250° |
| 2026-04-14 13:03 | 50.03726 | 8.54600 | 353 ft | 26 kts | 250° |
| 2026-04-14 13:03 | 50.03662 | 8.54340 | 350 ft | 17 kts | 238° |
| 2026-04-14 13:03 | 50.03608 | 8.54316 | 341 ft | 6 kts | 169° |
| 2026-04-14 13:03 | 50.03566 | 8.54335 | 349 ft | 8 kts | 160° |
| 2026-04-14 13:04 | 50.03502 | 8.54410 | 348 ft | 12 kts | 111° |
| 2026-04-14 13:04 | 50.03517 | 8.54529 | 351 ft | 10 kts | 69° |
| 2026-04-14 13:04 | 50.03524 | 8.54559 | 347 ft | 0 kts | 69° |
| 2026-04-14 13:04 | 50.03527 | 8.54569 | 350 ft | 8 kts | 69° |
| 2026-04-14 13:05 | 50.03637 | 8.55029 | 349 ft | 83 kts | 70° |
| 2026-04-14 13:05 | 50.03910 | 8.56176 | 359 ft | 140 kts | 69° |
| 2026-04-14 13:05 | 50.04296 | 8.57809 | 494 ft | 173 kts | 67° |
| 2026-04-14 13:05 | 50.04694 | 8.59581 | 1173 ft | 176 kts | 67° |
| 2026-04-14 13:06 | 50.05100 | 8.61407 | 1831 ft | 186 kts | 69° |
| 2026-04-14 13:06 | 50.05563 | 8.63462 | 2184 ft | 214 kts | 68° |
| 2026-04-14 13:06 | 50.06065 | 8.65683 | 2972 ft | 221 kts | 68° |
| 2026-04-14 13:06 | 50.06581 | 8.67969 | 3717 ft | 227 kts | 69° |
| 2026-04-14 13:07 | 50.07034 | 8.70327 | 3937 ft | 229 kts | 78° |
| 2026-04-14 13:07 | 50.07082 | 8.72855 | 4008 ft | 249 kts | 94° |
| 2026-04-14 13:07 | 50.06785 | 8.75584 | 4010 ft | 259 kts | 98° |
| 2026-04-14 13:07 | 50.06461 | 8.78367 | 4077 ft | 266 kts | 98° |
| 2026-04-14 13:08 | 50.06128 | 8.81216 | 5027 ft | 267 kts | 98° |
| 2026-04-14 13:08 | 50.05813 | 8.84067 | 6058 ft | 268 kts | 93° |
| 2026-04-14 13:08 | 50.05799 | 8.86972 | 6962 ft | 270 kts | 86° |
| 2026-04-14 13:08 | 50.05856 | 8.89920 | 7822 ft | 275 kts | 87° |
| 2026-04-14 13:09 | 50.05910 | 8.92931 | 8658 ft | 281 kts | 87° |
| 2026-04-14 13:09 | 50.05962 | 8.96006 | 9480 ft | 288 kts | 89° |
| 2026-04-14 13:09 | 50.06012 | 8.99110 | 10246 ft | 295 kts | 90° |
| 2026-04-14 13:09 | 50.06065 | 9.02416 | 10604 ft | 317 kts | 89° |
| 2026-04-14 13:10 | 50.06121 | 9.05992 | 11073 ft | 333 kts | 89° |
| 2026-04-14 13:10 | 50.06176 | 9.09631 | 11783 ft | 339 kts | 89° |
| 2026-04-14 13:10 | 50.06231 | 9.13327 | 12554 ft | 344 kts | 89° |
| 2026-04-14 13:10 | 50.06286 | 9.17073 | 13294 ft | 349 kts | 89° |
| 2026-04-14 13:11 | 50.06343 | 9.20822 | 14017 ft | 354 kts | 89° |
| 2026-04-14 13:11 | 50.06421 | 9.24720 | 14682 ft | 358 kts | 86° |
| 2026-04-14 13:11 | 50.06849 | 9.28498 | 15335 ft | 362 kts | 74° |
| 2026-04-14 13:11 | 50.07670 | 9.32282 | 16008 ft | 366 kts | 74° |
| 2026-04-14 13:12 | 50.07956 | 9.36215 | 16654 ft | 368 kts | 90° |
| 2026-04-14 13:12 | 50.07936 | 9.40165 | 17318 ft | 372 kts | 92° |
| 2026-04-14 13:12 | 50.07882 | 9.44204 | 17991 ft | 375 kts | 92° |
| 2026-04-14 13:12 | 50.07834 | 9.48280 | 18626 ft | 378 kts | 91° |
| 2026-04-14 13:13 | 50.07805 | 9.52394 | 19187 ft | 382 kts | 91° |
| 2026-04-14 13:13 | 50.07795 | 9.56544 | 19739 ft | 385 kts | 91° |
| 2026-04-14 13:13 | 50.07800 | 9.60732 | 20298 ft | 388 kts | 91° |
| 2026-04-14 13:13 | 50.07814 | 9.64952 | 20840 ft | 391 kts | 91° |
| 2026-04-14 13:14 | 50.07829 | 9.69209 | 21389 ft | 394 kts | 91° |
| 2026-04-14 13:14 | 50.07842 | 9.73489 | 21931 ft | 397 kts | 91° |
| 2026-04-14 13:14 | 50.07850 | 9.77812 | 22495 ft | 401 kts | 91° |
| 2026-04-14 13:14 | 50.07854 | 9.82172 | 23065 ft | 405 kts | 91° |
| 2026-04-14 13:15 | 50.07855 | 9.86569 | 23628 ft | 408 kts | 91° |
| 2026-04-14 13:15 | 50.07851 | 9.91003 | 24104 ft | 411 kts | 91° |
| 2026-04-14 13:15 | 50.07846 | 9.95472 | 24547 ft | 414 kts | 91° |
| 2026-04-14 13:15 | 50.07840 | 9.99966 | 25012 ft | 417 kts | 91° |
| 2026-04-14 13:16 | 50.07835 | 10.04496 | 25490 ft | 420 kts | 91° |
| 2026-04-14 13:16 | 50.07828 | 10.09046 | 25939 ft | 422 kts | 91° |
| 2026-04-14 13:16 | 50.07816 | 10.13628 | 26368 ft | 424 kts | 91° |
| 2026-04-14 13:16 | 50.07802 | 10.18217 | 26784 ft | 426 kts | 91° |
| 2026-04-14 13:17 | 50.07789 | 10.22840 | 27176 ft | 428 kts | 91° |
| 2026-04-14 13:17 | 50.07776 | 10.27488 | 27560 ft | 431 kts | 91° |
| 2026-04-14 13:17 | 50.07761 | 10.32165 | 27947 ft | 433 kts | 91° |
| 2026-04-14 13:17 | 50.07743 | 10.36856 | 28329 ft | 435 kts | 91° |
| 2026-04-14 13:18 | 50.07720 | 10.41586 | 28692 ft | 438 kts | 91° |
| 2026-04-14 13:18 | 50.07692 | 10.46339 | 29051 ft | 440 kts | 91° |
| 2026-04-14 13:18 | 50.07664 | 10.51111 | 29163 ft | 437 kts | 91° |
| 2026-04-14 13:18 | 50.07637 | 10.55757 | 29173 ft | 422 kts | 91° |
| 2026-04-14 13:19 | 50.07608 | 10.60221 | 29173 ft | 416 kts | 91° |
| 2026-04-14 13:19 | 50.07543 | 10.69184 | 29174 ft | 413 kts | 92° |
| 2026-04-14 13:20 | 50.06479 | 10.77897 | 29175 ft | 410 kts | 109° |
| 2026-04-14 13:20 | 50.04689 | 10.86339 | 29165 ft | 411 kts | 109° |
| 2026-04-14 13:21 | 50.02904 | 10.94779 | 29170 ft | 411 kts | 109° |
| 2026-04-14 13:21 | 50.01116 | 11.03205 | 29163 ft | 411 kts | 109° |
| 2026-04-14 13:22 | 49.99320 | 11.11629 | 29154 ft | 410 kts | 109° |
| 2026-04-14 13:22 | 49.97532 | 11.20043 | 29149 ft | 410 kts | 107° |
| 2026-04-14 13:23 | 49.96784 | 11.28804 | 29146 ft | 411 kts | 93° |
| 2026-04-14 13:23 | 49.96514 | 11.37675 | 29143 ft | 411 kts | 93° |
| 2026-04-14 13:24 | 49.96227 | 11.46547 | 29141 ft | 411 kts | 94° |
| 2026-04-14 13:24 | 49.95788 | 11.59866 | 29134 ft | 412 kts | 94° |
| 2026-04-14 13:25 | 49.95487 | 11.68697 | 29131 ft | 412 kts | 94° |
| 2026-04-14 13:26 | 49.94851 | 11.86495 | 29136 ft | 413 kts | 94° |
| 2026-04-14 13:26 | 49.94535 | 11.95391 | 29128 ft | 413 kts | 94° |
| 2026-04-14 13:27 | 49.94330 | 12.04321 | 29128 ft | 414 kts | 92° |
| 2026-04-14 13:27 | 49.94177 | 12.13256 | 29127 ft | 414 kts | 92° |
| 2026-04-14 13:28 | 49.94008 | 12.22200 | 29128 ft | 415 kts | 93° |
| 2026-04-14 13:28 | 49.93848 | 12.29633 | 29125 ft | 415 kts | 93° |
| 2026-04-14 13:29 | 49.93633 | 12.38573 | 29121 ft | 415 kts | 94° |
| 2026-04-14 13:29 | 49.93374 | 12.47526 | 29115 ft | 415 kts | 94° |
| 2026-04-14 13:30 | 49.93105 | 12.56481 | 29119 ft | 415 kts | 94° |
| 2026-04-14 13:30 | 49.92837 | 12.65438 | 29061 ft | 416 kts | 94° |
| 2026-04-14 13:31 | 49.92705 | 12.69928 | 28785 ft | 417 kts | 94° |
| 2026-04-14 13:31 | 49.92572 | 12.74418 | 28510 ft | 417 kts | 94° |
| 2026-04-14 13:31 | 49.92435 | 12.78917 | 28235 ft | 417 kts | 94° |
| 2026-04-14 13:31 | 49.92296 | 12.83413 | 27948 ft | 418 kts | 94° |
| 2026-04-14 13:32 | 49.92152 | 12.87916 | 27678 ft | 417 kts | 94° |
| 2026-04-14 13:32 | 49.92006 | 12.92405 | 27412 ft | 416 kts | 94° |
| 2026-04-14 13:32 | 49.91861 | 12.96879 | 27150 ft | 414 kts | 94° |
| 2026-04-14 13:32 | 49.91714 | 13.01321 | 26901 ft | 412 kts | 94° |
| 2026-04-14 13:33 | 49.91566 | 13.05756 | 26637 ft | 410 kts | 94° |
| 2026-04-14 13:33 | 49.91419 | 13.10171 | 26381 ft | 409 kts | 95° |
| 2026-04-14 13:33 | 49.91269 | 13.14567 | 26133 ft | 407 kts | 95° |
| 2026-04-14 13:33 | 49.91110 | 13.18944 | 25879 ft | 405 kts | 95° |
| 2026-04-14 13:34 | 49.90780 | 13.27650 | 24912 ft | 404 kts | 95° |
| 2026-04-14 13:34 | 49.90612 | 13.32009 | 24313 ft | 404 kts | 95° |
| 2026-04-14 13:34 | 49.90445 | 13.36359 | 23725 ft | 404 kts | 95° |
| 2026-04-14 13:35 | 49.90276 | 13.40700 | 23039 ft | 403 kts | 95° |
| 2026-04-14 13:35 | 49.90103 | 13.45041 | 22362 ft | 403 kts | 95° |
| 2026-04-14 13:35 | 49.89925 | 13.49381 | 21700 ft | 403 kts | 95° |
| 2026-04-14 13:35 | 49.89743 | 13.53722 | 21048 ft | 403 kts | 95° |
| 2026-04-14 13:36 | 49.89557 | 13.58052 | 20420 ft | 402 kts | 95° |
| 2026-04-14 13:36 | 49.89366 | 13.62372 | 19801 ft | 401 kts | 95° |
| 2026-04-14 13:36 | 49.89175 | 13.66618 | 19201 ft | 400 kts | 95° |
| 2026-04-14 13:36 | 49.88978 | 13.70913 | 18594 ft | 399 kts | 95° |
| 2026-04-14 13:37 | 49.88778 | 13.75198 | 17946 ft | 398 kts | 95° |
| 2026-04-14 13:37 | 49.88577 | 13.79475 | 17276 ft | 397 kts | 95° |
| 2026-04-14 13:37 | 49.88372 | 13.83743 | 16621 ft | 397 kts | 95° |
| 2026-04-14 13:37 | 49.88165 | 13.88003 | 15980 ft | 396 kts | 95° |
| 2026-04-14 13:38 | 49.87961 | 13.92247 | 15345 ft | 395 kts | 95° |
| 2026-04-14 13:38 | 49.87753 | 13.96493 | 14672 ft | 395 kts | 95° |
| 2026-04-14 13:38 | 49.87544 | 14.00739 | 13951 ft | 397 kts | 95° |
| 2026-04-14 13:38 | 49.87335 | 14.05011 | 13152 ft | 398 kts | 95° |
| 2026-04-14 13:39 | 49.87121 | 14.09271 | 12362 ft | 391 kts | 95° |
| 2026-04-14 13:39 | 49.86920 | 14.13370 | 11691 ft | 373 kts | 95° |
| 2026-04-14 13:39 | 49.86733 | 14.17287 | 11058 ft | 356 kts | 95° |
| 2026-04-14 13:39 | 49.86553 | 14.21025 | 10489 ft | 340 kts | 95° |
| 2026-04-14 13:40 | 49.86391 | 14.24593 | 10005 ft | 325 kts | 95° |
| 2026-04-14 13:40 | 49.86238 | 14.28019 | 9477 ft | 313 kts | 96° |
| 2026-04-14 13:40 | 49.86087 | 14.31326 | 8951 ft | 302 kts | 95° |
| 2026-04-14 13:40 | 49.85940 | 14.34508 | 8453 ft | 292 kts | 96° |
| 2026-04-14 13:41 | 49.85801 | 14.37612 | 8000 ft | 288 kts | 95° |
| 2026-04-14 13:41 | 49.85661 | 14.40680 | 7545 ft | 285 kts | 95° |
| 2026-04-14 13:41 | 49.85512 | 14.43712 | 7101 ft | 281 kts | 95° |
| 2026-04-14 13:41 | 49.85366 | 14.46673 | 6649 ft | 271 kts | 95° |
| 2026-04-14 13:42 | 49.85228 | 14.49537 | 6187 ft | 262 kts | 96° |
| 2026-04-14 13:42 | 49.85093 | 14.52311 | 5735 ft | 254 kts | 95° |
| 2026-04-14 13:42 | 49.85204 | 14.54975 | 5279 ft | 246 kts | 71° |
| 2026-04-14 13:42 | 49.86122 | 14.57123 | 4963 ft | 234 kts | 37° |
| 2026-04-14 13:43 | 49.87539 | 14.58046 | 4935 ft | 218 kts | 1° |
| 2026-04-14 13:43 | 49.89017 | 14.57668 | 4917 ft | 217 kts | 339° |
| 2026-04-14 13:43 | 49.90419 | 14.56816 | 4899 ft | 217 kts | 336° |
| 2026-04-14 13:43 | 49.91792 | 14.55908 | 4891 ft | 217 kts | 335° |
| 2026-04-14 13:44 | 49.93162 | 14.54997 | 4856 ft | 217 kts | 335° |
| 2026-04-14 13:44 | 49.94545 | 14.54074 | 4836 ft | 217 kts | 335° |
| 2026-04-14 13:44 | 49.95931 | 14.53153 | 4803 ft | 216 kts | 335° |
| 2026-04-14 13:44 | 49.97271 | 14.52113 | 4779 ft | 215 kts | 321° |
| 2026-04-14 13:45 | 49.98253 | 14.50401 | 4709 ft | 214 kts | 306° |
| 2026-04-14 13:45 | 49.99147 | 14.48549 | 4486 ft | 213 kts | 306° |
| 2026-04-14 13:45 | 50.00035 | 14.46720 | 4212 ft | 214 kts | 307° |
| 2026-04-14 13:45 | 50.00932 | 14.44877 | 3924 ft | 211 kts | 307° |
| 2026-04-14 13:46 | 50.01791 | 14.43112 | 3631 ft | 197 kts | 308° |
| 2026-04-14 13:46 | 50.02592 | 14.41466 | 3395 ft | 187 kts | 308° |
| 2026-04-14 13:46 | 50.03387 | 14.39832 | 3141 ft | 191 kts | 308° |
| 2026-04-14 13:46 | 50.04159 | 14.38244 | 2875 ft | 177 kts | 308° |
| 2026-04-14 13:47 | 50.04881 | 14.36758 | 2665 ft | 166 kts | 308° |
| 2026-04-14 13:47 | 50.05543 | 14.35392 | 2437 ft | 150 kts | 309° |
| 2026-04-14 13:47 | 50.06138 | 14.34166 | 2262 ft | 135 kts | 310° |
| 2026-04-14 13:47 | 50.06697 | 14.33014 | 2071 ft | 132 kts | 309° |
| 2026-04-14 13:48 | 50.07229 | 14.31920 | 1895 ft | 124 kts | 310° |
| 2026-04-14 13:48 | 50.07736 | 14.30881 | 1724 ft | 118 kts | 309° |
| 2026-04-14 13:48 | 50.08222 | 14.29864 | 1517 ft | 115 kts | 312° |
| 2026-04-14 13:48 | 50.08711 | 14.28862 | 1365 ft | 116 kts | 308° |
| 2026-04-14 13:49 | 50.09187 | 14.27877 | 1245 ft | 113 kts | 310° |
| 2026-04-14 13:49 | 50.09593 | 14.27042 | 1215 ft | 67 kts | 306° |
| 2026-04-14 13:49 | 50.09782 | 14.26648 | 1214 ft | 31 kts | 307° |
| 2026-04-14 13:49 | 50.09817 | 14.26597 | 1214 ft | 5 kts | 340° |
| 2026-04-14 13:50 | 50.09874 | 14.26632 | 1214 ft | 12 kts | 63° |
| 2026-04-14 13:50 | 50.09889 | 14.26788 | 1211 ft | 17 kts | 81° |
| 2026-04-14 13:50 | 50.09909 | 14.26992 | 1208 ft | 21 kts | 82° |
| 2026-04-14 13:50 | 50.09939 | 14.27183 | 1206 ft | 11 kts | 31° |
| 2026-04-14 13:51 | 50.09961 | 14.27167 | 1205 ft | 3 kts | 283° |
| 2026-04-14 13:51 | 50.09964 | 14.27111 | 1206 ft | 6 kts | 275° |
| 2026-04-14 13:51 | 50.09986 | 14.27045 | 1205 ft | 10 kts | 305° |
| 2026-04-14 13:51 | 50.10037 | 14.26938 | 1203 ft | 15 kts | 307° |
| 2026-04-14 13:52 | 50.10107 | 14.26793 | 1199 ft | 19 kts | 307° |
| 2026-04-14 13:52 | 50.10192 | 14.26618 | 1197 ft | 22 kts | 307° |
| 2026-04-14 13:52 | 50.10286 | 14.26422 | 1193 ft | 23 kts | 306° |
| 2026-04-14 13:52 | 50.10357 | 14.26275 | 1190 ft | 15 kts | 307° |
| 2026-04-14 13:53 | 50.10424 | 14.26134 | 1187 ft | 14 kts | 306° |
| 2026-04-14 13:53 | 50.10470 | 14.26038 | 1185 ft | 12 kts | 307° |
| 2026-04-14 13:53 | 50.10548 | 14.25988 | 1181 ft | 16 kts | 33° |
| 2026-04-14 13:53 | 50.10561 | 14.26142 | 1175 ft | 15 kts | 122° |
| 2026-04-14 13:54 | 50.10525 | 14.26266 | 1176 ft | 12 kts | 117° |
| 2026-04-14 13:54 | 50.10538 | 14.26323 | 1175 ft | 2 kts | 30° |
| 2026-04-14 13:54 | 50.10549 | 14.26334 | 1174 ft | 1 kts | 32° |
| 2026-04-14 13:54 | 50.10553 | 14.26337 | 1174 ft | 0 kts | 32° |
| 2026-04-14 13:55 | 50.10560 | 14.26345 | 1173 ft | 0 kts | 33° |
| 2026-04-14 13:55 | 50.10563 | 14.26347 | 1178 ft | 1 kts | 33° |
| 2026-04-14 13:55 | 50.10563 | 14.26348 | 1178 ft | 0 kts | 33° |